createdAt,value
2019-05-10T00:02:14.552Z,99.90
2019-05-10T00:05:01.266Z,99.90
2019-05-10T00:07:47.638Z,99.90
2019-05-10T00:10:15.359Z,99.90
2019-05-10T00:12:54.560Z,99.90
2019-05-10T00:15:24.605Z,99.90
2019-05-10T00:17:54.630Z,99.90
2019-05-10T00:20:23.017Z,99.90
2019-05-10T00:22:51.413Z,99.90
2019-05-10T00:25:19.788Z,99.90
2019-05-10T00:27:48.192Z,99.90
2019-05-10T00:30:16.735Z,99.90
2019-05-10T00:32:45.124Z,99.90
2019-05-10T00:35:13.671Z,99.90
2019-05-10T00:37:42.061Z,99.90
2019-05-10T00:40:10.826Z,99.90
2019-05-10T00:42:39.221Z,99.90
2019-05-10T00:45:08.381Z,99.90
2019-05-10T00:47:36.763Z,99.90
2019-05-10T00:50:06.765Z,99.90
2019-05-10T00:52:35.155Z,99.90
2019-05-10T00:55:17.936Z,99.90
2019-05-10T00:57:36.109Z,99.90
2019-05-10T01:00:06.505Z,99.90
2019-05-10T01:02:34.913Z,99.90
2019-05-10T01:05:04.368Z,99.90
2019-05-10T01:07:32.761Z,99.90
2019-05-10T01:10:01.191Z,99.90
2019-05-10T01:12:29.623Z,99.90
2019-05-10T01:14:58.013Z,99.90
2019-05-10T01:17:26.413Z,99.90
2019-05-10T01:19:55.633Z,99.90
2019-05-10T01:22:24.078Z,99.90
2019-05-10T01:24:52.476Z,99.90
2019-05-10T01:27:21.255Z,99.90
2019-05-10T01:29:49.682Z,99.90
2019-05-10T01:32:18.224Z,99.90
2019-05-10T01:34:46.619Z,99.90
2019-05-10T01:37:15.010Z,99.90
2019-05-10T01:39:43.404Z,99.90
2019-05-10T01:42:11.833Z,99.90
2019-05-10T01:44:40.285Z,99.90
2019-05-10T01:47:08.672Z,99.90
2019-05-10T01:49:37.069Z,99.90
2019-05-10T01:52:05.499Z,99.90
2019-05-10T01:54:33.877Z,99.90
2019-05-10T01:57:02.300Z,99.90
2019-05-10T01:59:30.690Z,99.90
2019-05-10T02:01:59.090Z,99.90
2019-05-10T02:04:27.477Z,99.90
2019-05-10T02:06:55.877Z,99.90
2019-05-10T02:09:24.337Z,99.90
2019-05-10T02:11:52.731Z,99.90
2019-05-10T02:14:21.129Z,99.90
2019-05-10T02:16:49.514Z,99.90
2019-05-10T02:19:17.945Z,99.90
2019-05-10T02:21:46.334Z,99.90
2019-05-10T02:24:14.741Z,99.90
2019-05-10T02:26:43.134Z,99.90
2019-05-10T02:29:11.532Z,99.90
2019-05-10T02:31:40.390Z,99.90
2019-05-10T02:34:08.771Z,99.90
2019-05-10T02:36:37.153Z,99.90
2019-05-10T02:39:08.793Z,99.90
2019-05-10T02:41:37.259Z,99.90
2019-05-10T02:44:05.659Z,99.90
2019-05-10T02:46:34.058Z,99.90
2019-05-10T02:49:02.466Z,99.90
2019-05-10T02:51:30.871Z,99.90
2019-05-10T02:54:00.578Z,99.90
2019-05-10T02:56:31.628Z,99.90
2019-05-10T02:59:01.279Z,99.90
2019-05-10T03:01:30.938Z,99.90
2019-05-10T03:04:02.490Z,99.90
2019-05-10T03:06:34.032Z,99.90
2019-05-10T03:09:07.633Z,99.90
2019-05-10T03:11:48.299Z,99.90
2019-05-10T03:14:19.881Z,99.90
2019-05-10T03:16:52.012Z,99.90
2019-05-10T03:19:41.049Z,99.90
2019-05-10T03:22:09.286Z,99.90
2019-05-10T03:24:37.676Z,99.90
2019-05-10T03:27:06.057Z,99.90
2019-05-10T03:29:34.449Z,99.90
2019-05-10T03:32:02.838Z,99.90
2019-05-10T03:34:31.311Z,99.90
2019-05-10T03:37:00.532Z,99.90
2019-05-10T03:39:29.009Z,99.90
2019-05-10T03:41:57.400Z,99.90
2019-05-10T03:44:25.798Z,99.90
2019-05-10T03:46:54.311Z,99.90
2019-05-10T03:49:22.814Z,99.90
2019-05-10T03:51:51.251Z,99.90
2019-05-10T03:54:19.670Z,99.90
2019-05-10T03:56:48.056Z,99.90
2019-05-10T03:59:16.445Z,99.90
2019-05-10T04:01:44.906Z,99.90
2019-05-10T04:04:13.323Z,99.90
2019-05-10T04:06:41.721Z,99.90
2019-05-10T04:09:10.096Z,99.90
2019-05-10T04:11:38.517Z,99.90
2019-05-10T04:14:06.889Z,99.90
2019-05-10T04:16:35.301Z,99.90
2019-05-10T04:19:03.849Z,99.90
2019-05-10T04:21:32.255Z,99.90
2019-05-10T04:24:00.639Z,99.90
2019-05-10T04:26:29.074Z,99.90
2019-05-10T04:28:57.464Z,99.90
2019-05-10T04:31:25.856Z,99.90
2019-05-10T04:34:13.606Z,99.90
2019-05-10T04:36:41.989Z,99.90
2019-05-10T04:39:10.377Z,99.90
2019-05-10T04:41:38.822Z,99.90
2019-05-10T04:44:07.209Z,99.90
2019-05-10T04:46:35.592Z,99.90
2019-05-10T04:49:03.993Z,99.90
2019-05-10T04:51:33.351Z,99.90
2019-05-10T04:54:01.758Z,99.90
2019-05-10T04:56:30.149Z,99.90
2019-05-10T04:58:58.541Z,99.90
2019-05-10T05:01:26.949Z,99.90
2019-05-10T05:03:55.346Z,99.90
2019-05-10T05:06:23.744Z,99.90
2019-05-10T05:08:52.182Z,99.90
2019-05-10T05:11:20.604Z,99.90
2019-05-10T05:13:49.001Z,99.90
2019-05-10T05:16:17.486Z,99.90
2019-05-10T05:18:45.906Z,99.90
2019-05-10T05:21:14.307Z,99.90
2019-05-10T05:23:42.697Z,99.90
2019-05-10T05:26:11.947Z,99.90
2019-05-10T05:28:40.333Z,99.90
2019-05-10T05:31:08.741Z,99.90
2019-05-10T05:33:37.141Z,99.90
2019-05-10T05:36:05.541Z,99.90
2019-05-10T05:38:33.976Z,99.90
2019-05-10T05:41:02.364Z,99.90
2019-05-10T05:43:30.775Z,99.90
2019-05-10T05:45:59.160Z,99.90
2019-05-10T05:48:39.486Z,99.90
2019-05-10T05:50:57.673Z,99.90
2019-05-10T05:53:26.064Z,99.90
2019-05-10T05:55:54.470Z,99.90
2019-05-10T05:58:27.255Z,99.90
2019-05-10T06:00:52.999Z,99.90
2019-05-10T06:03:27.576Z,99.90
2019-05-10T06:05:51.525Z,99.90
2019-05-10T06:08:23.302Z,99.90
2019-05-10T06:10:57.884Z,99.90
2019-05-10T06:13:23.298Z,99.90
2019-05-10T06:15:51.293Z,99.90
2019-05-10T06:18:19.693Z,99.90
2019-05-10T06:20:48.089Z,99.90
2019-05-10T06:23:16.497Z,99.90
2019-05-10T06:25:44.891Z,99.90
2019-05-10T06:28:26.429Z,99.90
2019-05-10T06:30:44.197Z,99.90
2019-05-10T06:33:13.390Z,99.90
2019-05-10T06:35:42.350Z,99.90
2019-05-10T06:38:10.744Z,99.90
2019-05-10T06:40:46.514Z,99.90
2019-05-10T06:43:13.391Z,99.90
2019-05-10T06:45:40.977Z,99.90
2019-05-10T06:48:09.380Z,99.90
2019-05-10T06:50:37.791Z,99.90
2019-05-10T06:53:10.719Z,99.90
2019-05-10T06:55:36.337Z,99.90
2019-05-10T06:58:04.757Z,99.90
2019-05-10T07:00:38.262Z,99.90
2019-05-10T07:03:03.257Z,99.90
2019-05-10T07:05:31.656Z,99.90
2019-05-10T07:08:13.465Z,99.90
2019-05-10T07:10:33.740Z,99.90
2019-05-10T07:13:03.406Z,99.90
2019-05-10T07:15:30.442Z,99.90
2019-05-10T07:17:58.848Z,99.90
2019-05-10T07:20:29.458Z,99.90
2019-05-10T07:23:00.041Z,99.90
2019-05-10T07:25:27.516Z,99.90
2019-05-10T07:27:55.981Z,99.90
2019-05-10T07:30:33.116Z,99.90
2019-05-10T07:33:02.069Z,99.90
2019-05-10T07:35:36.817Z,99.90
2019-05-10T07:38:01.325Z,99.90
2019-05-10T07:40:29.764Z,99.90
2019-05-10T07:42:58.216Z,99.90
2019-05-10T07:45:27.373Z,99.90
2019-05-10T07:47:55.974Z,99.90
2019-05-10T07:50:24.369Z,99.90
2019-05-10T07:52:52.780Z,99.90
2019-05-10T07:55:28.089Z,99.90
2019-05-10T07:57:51.300Z,99.90
2019-05-10T08:00:20.954Z,99.90
2019-05-10T08:02:55.959Z,99.90
2019-05-10T08:05:19.470Z,99.90
2019-05-10T08:07:49.506Z,99.90
2019-05-10T08:10:18.688Z,99.90
2019-05-10T08:12:48.452Z,99.90
2019-05-10T08:15:19.466Z,99.90
2019-05-10T08:17:50.665Z,99.90
2019-05-10T08:20:30.705Z,99.90
2019-05-10T08:22:48.450Z,99.90
2019-05-10T08:25:16.841Z,99.90
2019-05-10T08:27:50.649Z,99.90
2019-05-10T08:30:28.441Z,99.90
2019-05-10T08:32:52.587Z,99.90
2019-05-10T08:35:21.753Z,99.90
2019-05-10T08:37:50.149Z,99.90
2019-05-10T08:40:19.718Z,99.90
2019-05-10T08:42:54.434Z,99.90
2019-05-10T08:45:18.793Z,99.90
2019-05-10T08:47:47.201Z,99.90
2019-05-10T08:50:36.772Z,99.90
2019-05-10T08:52:45.810Z,99.90
2019-05-10T08:55:14.293Z,99.90
2019-05-10T08:57:49.026Z,99.90
2019-05-10T09:00:13.727Z,99.90
2019-05-10T09:02:42.845Z,99.90
2019-05-10T09:05:12.599Z,99.90
2019-05-10T09:07:43.079Z,99.90
2019-05-10T09:10:13.352Z,99.90
2019-05-10T09:12:50.690Z,99.90
2019-05-10T09:15:13.736Z,99.90
2019-05-10T09:17:43.165Z,99.90
2019-05-10T09:20:20.951Z,99.90
2019-05-10T09:22:43.227Z,99.90
2019-05-10T09:25:12.948Z,99.90
2019-05-10T09:27:43.246Z,99.90
2019-05-10T09:30:18.291Z,99.90
2019-05-10T09:32:44.158Z,99.90
2019-05-10T09:35:12.980Z,99.90
2019-05-10T09:37:42.238Z,99.90
2019-05-10T09:40:13.679Z,99.90
2019-05-10T09:42:43.641Z,99.90
2019-05-10T09:45:13.036Z,99.90
2019-05-10T09:47:43.420Z,99.90
2019-05-10T09:50:13.759Z,99.90
2019-05-10T09:52:42.229Z,99.90
2019-05-10T09:55:14.882Z,99.90
2019-05-10T09:57:40.817Z,99.90
2019-05-10T10:00:11.190Z,99.90
2019-05-10T10:02:40.873Z,99.90
2019-05-10T10:05:11.440Z,99.90
2019-05-10T10:07:39.838Z,99.90
2019-05-10T10:10:12.747Z,99.90
2019-05-10T10:12:40.005Z,99.90
2019-05-10T10:15:10.719Z,99.90
2019-05-10T10:17:42.138Z,99.90
2019-05-10T10:20:08.766Z,99.90
2019-05-10T10:22:38.172Z,99.90
2019-05-10T10:25:08.135Z,99.90
2019-05-10T10:27:39.358Z,99.90
2019-05-10T10:30:12.706Z,99.90
2019-05-10T10:32:37.770Z,99.90
2019-05-10T10:35:08.075Z,99.90
2019-05-10T10:37:37.930Z,99.90
2019-05-10T10:40:08.856Z,99.90
2019-05-10T10:42:38.240Z,99.90
2019-05-10T10:45:08.285Z,99.90
2019-05-10T10:47:38.123Z,99.90
2019-05-10T10:50:13.230Z,99.90
2019-05-10T10:52:39.261Z,99.90
2019-05-10T10:55:11.390Z,99.90
2019-05-10T10:57:38.710Z,99.90
2019-05-10T11:00:10.164Z,99.90
2019-05-10T11:02:41.473Z,99.90
2019-05-10T11:05:09.790Z,99.90
2019-05-10T11:07:41.511Z,99.90
2019-05-10T11:10:16.080Z,99.90
2019-05-10T11:12:41.047Z,99.90
2019-05-10T11:15:11.408Z,99.90
2019-05-10T11:17:40.758Z,99.90
2019-05-10T11:20:11.477Z,99.90
2019-05-10T11:22:41.837Z,99.90
2019-05-10T11:25:12.886Z,99.90
2019-05-10T11:27:41.733Z,96.30
2019-05-10T11:30:12.125Z,93.50
2019-05-10T11:32:41.885Z,91.90
2019-05-10T11:35:11.828Z,78.50
2019-05-10T11:37:45.338Z,80.40
2019-05-10T11:40:18.037Z,71.30
2019-05-10T11:42:47.256Z,64.30
2019-05-10T11:45:13.226Z,66.50
2019-05-10T11:47:41.641Z,63.20
2019-05-10T11:50:12.530Z,64.20
2019-05-10T11:52:41.277Z,65.20
2019-05-10T11:55:11.358Z,61.00
2019-05-10T11:57:43.975Z,62.50
2019-05-10T12:00:24.555Z,60.70
2019-05-10T12:03:00.922Z,61.70
2019-05-10T12:05:19.893Z,59.50
2019-05-10T12:07:45.674Z,59.90
2019-05-10T12:10:20.243Z,57.90
2019-05-10T12:15:15.185Z,66.70
2019-05-10T12:17:47.652Z,67.40
2019-05-10T12:20:16.884Z,72.40
2019-05-10T12:22:47.286Z,74.20
2019-05-10T12:25:35.946Z,72.90
2019-05-10T12:26:47.919Z,62.70
2019-05-10T12:27:48.936Z,67.50
2019-05-10T12:30:16.217Z,67.50
2019-05-10T12:32:55.712Z,66.30
2019-05-10T12:35:15.364Z,61.40
2019-05-10T12:37:46.371Z,63.00
2019-05-10T12:40:15.455Z,67.60
2019-05-10T12:42:46.925Z,65.40
2019-05-10T12:45:15.670Z,62.00
2019-05-10T12:47:44.088Z,58.70
2019-05-10T12:50:13.996Z,61.10
2019-05-10T12:52:43.237Z,57.00
2019-05-10T12:55:12.717Z,55.60
2019-05-10T12:57:43.428Z,58.20
2019-05-10T13:00:13.058Z,59.60
2019-05-10T13:02:44.866Z,64.70
2019-05-10T13:05:15.426Z,65.30
2019-05-10T13:07:42.565Z,69.80
2019-05-10T13:10:11.151Z,78.30
2019-05-10T13:12:44.555Z,92.70
2019-05-10T13:15:10.717Z,96.00
2019-05-10T13:17:44.277Z,96.10
2019-05-10T13:20:11.381Z,97.50
2019-05-10T13:22:39.768Z,99.90
2019-05-10T13:25:09.014Z,99.90
2019-05-10T13:27:37.833Z,95.40
2019-05-10T13:30:07.393Z,94.70
2019-05-10T13:32:35.799Z,81.90
2019-05-10T13:35:05.642Z,81.70
2019-05-10T13:37:34.033Z,69.70
2019-05-10T13:40:05.681Z,68.90
2019-05-10T13:42:36.424Z,63.90
2019-05-10T13:45:03.511Z,62.70
2019-05-10T13:47:31.905Z,61.40
2019-05-10T13:50:00.297Z,59.30
2019-05-10T13:52:29.989Z,55.80
2019-05-10T13:54:58.813Z,60.90
2019-05-10T13:57:27.384Z,59.30
2019-05-10T13:59:57.383Z,61.10
2019-05-10T14:02:32.696Z,59.60
2019-05-10T14:04:56.065Z,58.60
2019-05-10T14:07:24.455Z,58.50
2019-05-10T14:09:53.013Z,56.80
2019-05-10T14:12:23.076Z,59.20
2019-05-10T14:15:02.625Z,62.00
2019-05-10T14:17:27.773Z,63.30
2019-05-10T14:19:56.174Z,63.80
2019-05-10T14:22:24.572Z,65.10
2019-05-10T14:24:58.473Z,70.10
2019-05-10T14:27:23.093Z,76.10
2019-05-10T14:29:51.493Z,92.50
2019-05-10T14:32:23.209Z,94.90
2019-05-10T14:34:51.596Z,99.80
2019-05-10T14:37:21.589Z,98.30
2019-05-10T14:39:50.122Z,99.90
2019-05-10T14:42:23.975Z,99.90
2019-05-10T14:44:48.718Z,99.90
2019-05-10T14:47:17.143Z,99.90
2019-05-10T14:49:46.813Z,99.90
2019-05-10T14:52:15.645Z,99.90
2019-05-10T14:54:49.292Z,99.90
2019-05-10T14:57:14.248Z,99.90
2019-05-10T14:59:42.653Z,99.90
2019-05-10T15:02:17.004Z,99.90
2019-05-10T15:04:46.615Z,99.90
2019-05-10T15:07:14.152Z,99.90
2019-05-10T15:09:41.420Z,99.90
2019-05-10T15:12:10.056Z,99.90
2019-05-10T15:14:40.255Z,99.90
2019-05-10T15:17:08.925Z,99.90
2019-05-10T15:19:37.344Z,99.90
2019-05-10T15:22:05.819Z,99.90
2019-05-10T15:24:34.207Z,99.90
2019-05-10T15:27:02.613Z,99.90
2019-05-10T15:29:31.024Z,99.90
2019-05-10T15:31:59.426Z,99.90
2019-05-10T15:34:27.825Z,99.90
2019-05-10T15:36:56.221Z,99.90
2019-05-10T15:39:28.738Z,99.90
2019-05-10T15:41:58.985Z,99.90
2019-05-10T15:44:31.396Z,99.90
2019-05-10T15:46:55.202Z,99.90
2019-05-10T15:49:24.594Z,99.90
2019-05-10T15:51:56.757Z,99.90
2019-05-10T15:54:23.271Z,99.90
2019-05-10T15:56:55.288Z,99.90
2019-05-10T15:59:21.744Z,99.90
2019-05-10T16:01:50.147Z,99.90
2019-05-10T16:04:18.555Z,99.90
2019-05-10T16:06:47.017Z,99.90
2019-05-10T16:09:17.859Z,99.90
2019-05-10T16:11:45.515Z,99.90
2019-05-10T16:14:13.921Z,97.70
2019-05-10T16:16:42.314Z,99.20
2019-05-10T16:19:12.914Z,98.80
2019-05-10T16:21:40.816Z,96.80
2019-05-10T16:24:09.208Z,97.00
2019-05-10T16:26:37.593Z,96.40
2019-05-10T16:29:06.022Z,94.90
2019-05-10T16:31:34.420Z,97.70
2019-05-10T16:34:02.806Z,98.20
2019-05-10T16:36:31.193Z,99.90
2019-05-10T16:39:01.607Z,99.50
2019-05-10T16:41:29.708Z,99.90
2019-05-10T16:44:00.094Z,99.90
2019-05-10T16:46:28.208Z,99.90
2019-05-10T16:48:56.606Z,99.90
2019-05-10T16:51:25.005Z,99.90
2019-05-10T16:53:53.475Z,99.90
2019-05-10T16:56:21.858Z,99.90
2019-05-10T16:58:53.258Z,99.90
2019-05-10T17:01:25.161Z,99.90
2019-05-10T17:03:57.622Z,99.90
2019-05-10T17:06:20.629Z,99.90
2019-05-10T17:08:49.027Z,99.90
2019-05-10T17:11:17.413Z,99.90
2019-05-10T17:13:45.804Z,99.90
2019-05-10T17:16:17.081Z,99.90
2019-05-10T17:18:44.344Z,99.90
2019-05-10T17:21:12.746Z,99.90
2019-05-10T17:23:41.485Z,99.90
2019-05-10T17:26:11.261Z,99.90
2019-05-10T17:28:39.665Z,99.90
2019-05-10T17:31:09.585Z,99.90
2019-05-10T17:33:42.713Z,99.90
2019-05-10T17:36:08.999Z,99.90
2019-05-10T17:38:38.064Z,99.90
2019-05-10T17:41:06.517Z,99.90
2019-05-10T17:43:34.917Z,99.90
2019-05-10T17:46:03.310Z,99.90
2019-05-10T17:48:31.701Z,99.90
2019-05-10T17:51:00.096Z,99.90
2019-05-10T17:53:28.498Z,99.90
2019-05-10T17:56:02.299Z,99.90
2019-05-10T17:58:27.742Z,99.90
2019-05-10T18:00:57.144Z,99.90
2019-05-10T18:03:25.545Z,99.90
2019-05-10T18:05:53.959Z,99.90
2019-05-10T18:08:22.416Z,99.90
2019-05-10T18:10:50.814Z,99.90
2019-05-10T18:13:19.219Z,99.90
2019-05-10T18:15:47.619Z,99.90
2019-05-10T18:18:16.015Z,99.90
2019-05-10T18:20:44.799Z,99.90
2019-05-10T18:23:20.136Z,99.90
2019-05-10T18:25:43.541Z,99.90
2019-05-10T18:28:11.977Z,99.90
2019-05-10T18:30:40.377Z,99.90
2019-05-10T18:33:12.258Z,99.90
2019-05-10T18:35:39.383Z,99.90
2019-05-10T18:38:07.865Z,99.90
2019-05-10T18:40:36.278Z,99.90
2019-05-10T18:43:05.832Z,99.90
2019-05-10T18:45:34.342Z,99.90
2019-05-10T18:48:03.429Z,99.90
2019-05-10T18:50:31.848Z,99.90
2019-05-10T18:53:00.242Z,99.90
2019-05-10T18:55:28.643Z,99.90
2019-05-10T18:57:57.033Z,99.90
2019-05-10T19:00:25.574Z,99.90
2019-05-10T19:02:55.793Z,99.90
2019-05-10T19:05:25.249Z,99.90
2019-05-10T19:08:03.146Z,99.90
2019-05-10T19:10:24.364Z,99.90
2019-05-10T19:13:00.169Z,99.90
2019-05-10T19:15:22.903Z,99.90
2019-05-10T19:17:51.295Z,99.90
2019-05-10T19:20:19.696Z,99.90
2019-05-10T19:22:48.092Z,99.90
2019-05-10T19:25:16.481Z,99.90
2019-05-10T19:27:50.248Z,99.90
2019-05-10T19:30:19.907Z,99.90
2019-05-10T19:32:51.084Z,99.90
2019-05-10T19:35:16.469Z,99.90
2019-05-10T19:37:44.873Z,99.90
2019-05-10T19:40:14.305Z,99.90
2019-05-10T19:42:44.715Z,99.90
2019-05-10T19:45:18.984Z,99.90
2019-05-10T19:47:43.906Z,99.90
2019-05-10T19:50:13.445Z,99.90
2019-05-10T19:52:41.827Z,99.90
2019-05-10T19:55:12.975Z,99.90
2019-05-10T19:57:40.420Z,99.90
2019-05-10T20:00:09.852Z,99.90
2019-05-10T20:02:38.265Z,99.90
2019-05-10T20:05:06.724Z,99.90
2019-05-10T20:07:45.180Z,99.90
2019-05-10T20:10:08.332Z,99.90
2019-05-10T20:12:37.361Z,99.90
2019-05-10T20:15:07.307Z,99.90
2019-05-10T20:17:35.710Z,99.90
2019-05-10T20:20:07.237Z,99.90
2019-05-10T20:22:36.284Z,99.90
2019-05-10T20:25:07.864Z,99.90
2019-05-10T20:27:36.324Z,99.90
2019-05-10T20:30:06.241Z,99.90
2019-05-10T20:32:34.645Z,99.90
2019-05-10T20:35:05.072Z,99.90
2019-05-10T20:37:33.521Z,99.90
2019-05-10T20:40:01.917Z,99.90
2019-05-10T20:42:30.321Z,99.90
2019-05-10T20:45:07.662Z,99.90
2019-05-10T20:47:28.866Z,99.90
2019-05-10T20:49:57.261Z,99.90
2019-05-10T20:52:25.710Z,99.90
2019-05-10T20:54:54.150Z,99.90
2019-05-10T20:57:22.529Z,99.90
2019-05-10T20:59:50.926Z,99.90
2019-05-10T21:02:19.312Z,99.90
2019-05-10T21:04:47.717Z,99.90
2019-05-10T21:07:16.878Z,99.90
2019-05-10T21:09:45.281Z,99.90
2019-05-10T21:12:13.690Z,99.90
2019-05-10T21:14:42.277Z,99.90
2019-05-10T21:17:10.697Z,99.90
2019-05-10T21:19:39.084Z,99.90
2019-05-10T21:22:07.473Z,99.90
2019-05-10T21:24:35.888Z,99.90
2019-05-10T21:27:05.205Z,99.90
2019-05-10T21:29:33.600Z,99.90
2019-05-10T21:32:02.053Z,99.90
2019-05-10T21:34:30.512Z,99.90
2019-05-10T21:36:58.908Z,99.90
2019-05-10T21:39:27.368Z,99.90
2019-05-10T21:41:55.774Z,99.90
2019-05-10T21:44:24.178Z,99.90
2019-05-10T21:46:53.802Z,99.90
2019-05-10T21:49:22.463Z,99.90
2019-05-10T21:51:50.909Z,99.90
2019-05-10T21:54:19.385Z,99.90
2019-05-10T21:56:47.848Z,99.90
2019-05-10T21:59:16.391Z,99.90
2019-05-10T22:01:44.858Z,99.90
2019-05-10T22:04:13.262Z,99.90
2019-05-10T22:06:41.699Z,99.90
2019-05-10T22:09:10.542Z,99.90
2019-05-10T22:11:38.989Z,99.90
2019-05-10T22:14:07.467Z,99.90
2019-05-10T22:16:35.860Z,99.90
2019-05-10T22:19:04.327Z,99.90
2019-05-10T22:21:32.733Z,99.90
2019-05-10T22:24:01.124Z,99.90
2019-05-10T22:26:29.530Z,99.90
2019-05-10T22:28:57.916Z,99.90
2019-05-10T22:31:26.320Z,99.90
2019-05-10T22:33:54.709Z,99.90
2019-05-10T22:36:23.112Z,99.90
2019-05-10T22:39:05.789Z,99.90
2019-05-10T22:41:21.624Z,99.90
2019-05-10T22:43:50.048Z,99.90
2019-05-10T22:46:18.454Z,99.90
2019-05-10T22:48:46.850Z,99.90
2019-05-10T22:51:15.249Z,99.90
2019-05-10T22:53:43.641Z,99.90
2019-05-10T22:56:12.048Z,99.90
2019-05-10T22:58:40.442Z,99.90
2019-05-10T23:01:08.847Z,99.90
2019-05-10T23:03:37.239Z,99.90
2019-05-10T23:06:05.625Z,99.90
2019-05-10T23:08:34.034Z,99.90
2019-05-10T23:11:02.504Z,99.90
2019-05-10T23:13:30.892Z,99.90
2019-05-10T23:15:59.305Z,99.90
2019-05-10T23:18:27.707Z,99.90
2019-05-10T23:20:56.175Z,99.90
2019-05-10T23:23:24.572Z,99.90
2019-05-10T23:25:52.960Z,99.90
2019-05-10T23:28:21.354Z,99.90
2019-05-10T23:30:49.741Z,99.90
2019-05-10T23:33:18.144Z,99.90
2019-05-10T23:35:46.542Z,99.90
2019-05-10T23:38:14.938Z,99.90
2019-05-10T23:40:43.336Z,99.90
2019-05-10T23:43:11.740Z,99.90
2019-05-10T23:45:40.124Z,99.90
2019-05-10T23:48:08.516Z,99.90
2019-05-10T23:50:36.916Z,99.90
2019-05-10T23:53:05.307Z,99.90
2019-05-10T23:55:33.776Z,99.90
2019-05-10T23:58:02.182Z,99.90
